sensor_id;sensor_type;location;lat;lon;timestamp;P1;durP1;ratioP1;P2;durP2;ratioP2
7128;SDS011;3606;52.930;8.644;2022-10-16T00:01:34;5.90;;;1.83;;
7128;SDS011;3606;52.930;8.644;2022-10-16T00:04:00;4.00;;;1.90;;
7128;SDS011;3606;52.930;8.644;2022-10-16T00:06:27;4.87;;;2.17;;
7128;SDS011;3606;52.930;8.644;2022-10-16T00:08:54;2.13;;;1.80;;
7128;SDS011;3606;52.930;8.644;2022-10-16T00:13:47;3.93;;;2.27;;
7128;SDS011;3606;52.930;8.644;2022-10-16T00:16:14;2.70;;;2.13;;
7128;SDS011;3606;52.930;8.644;2022-10-16T00:18:41;3.63;;;2.37;;
7128;SDS011;3606;52.930;8.644;2022-10-16T00:21:07;4.90;;;1.60;;
7128;SDS011;3606;52.930;8.644;2022-10-16T00:23:35;5.53;;;2.17;;
7128;SDS011;3606;52.930;8.644;2022-10-16T00:26:02;2.97;;;2.10;;
7128;SDS011;3606;52.930;8.644;2022-10-16T00:28:30;2.60;;;2.40;;
7128;SDS011;3606;52.930;8.644;2022-10-16T00:30:56;3.10;;;2.20;;
7128;SDS011;3606;52.930;8.644;2022-10-16T00:33:22;3.17;;;2.00;;
7128;SDS011;3606;52.930;8.644;2022-10-16T00:35:48;2.63;;;2.20;;
7128;SDS011;3606;52.930;8.644;2022-10-16T00:38:13;3.63;;;2.30;;
7128;SDS011;3606;52.930;8.644;2022-10-16T00:40:39;4.47;;;2.30;;
7128;SDS011;3606;52.930;8.644;2022-10-16T00:43:11;2.93;;;2.23;;
7128;SDS011;3606;52.930;8.644;2022-10-16T00:45:39;3.57;;;2.10;;
7128;SDS011;3606;52.930;8.644;2022-10-16T00:48:06;3.17;;;2.63;;
7128;SDS011;3606;52.930;8.644;2022-10-16T00:50:37;4.33;;;2.30;;
7128;SDS011;3606;52.930;8.644;2022-10-16T00:53:03;4.67;;;2.13;;
7128;SDS011;3606;52.930;8.644;2022-10-16T00:55:29;4.50;;;2.40;;
7128;SDS011;3606;52.930;8.644;2022-10-16T00:57:56;3.80;;;2.23;;
7128;SDS011;3606;52.930;8.644;2022-10-16T01:00:25;6.17;;;2.40;;
7128;SDS011;3606;52.930;8.644;2022-10-16T01:02:52;6.60;;;2.30;;
7128;SDS011;3606;52.930;8.644;2022-10-16T01:05:19;6.10;;;2.70;;
7128;SDS011;3606;52.930;8.644;2022-10-16T01:08:08;7.17;;;2.67;;
7128;SDS011;3606;52.930;8.644;2022-10-16T01:10:51;6.10;;;2.53;;
7128;SDS011;3606;52.930;8.644;2022-10-16T01:13:27;5.83;;;2.50;;
7128;SDS011;3606;52.930;8.644;2022-10-16T01:18:54;4.63;;;2.70;;
7128;SDS011;3606;52.930;8.644;2022-10-16T01:21:31;3.47;;;2.73;;
7128;SDS011;3606;52.930;8.644;2022-10-16T01:24:06;2.73;;;2.23;;
7128;SDS011;3606;52.930;8.644;2022-10-16T01:29:18;5.00;;;2.47;;
7128;SDS011;3606;52.930;8.644;2022-10-16T01:31:52;3.00;;;2.33;;
7128;SDS011;3606;52.930;8.644;2022-10-16T01:34:25;4.77;;;2.20;;
7128;SDS011;3606;52.930;8.644;2022-10-16T01:37:10;5.87;;;2.57;;
7128;SDS011;3606;52.930;8.644;2022-10-16T01:39:40;3.67;;;2.40;;
7128;SDS011;3606;52.930;8.644;2022-10-16T01:42:24;4.77;;;2.60;;
7128;SDS011;3606;52.930;8.644;2022-10-16T01:44:54;4.83;;;2.50;;
7128;SDS011;3606;52.930;8.644;2022-10-16T01:47:22;3.03;;;2.40;;
7128;SDS011;3606;52.930;8.644;2022-10-16T01:49:50;4.43;;;2.57;;
7128;SDS011;3606;52.930;8.644;2022-10-16T01:52:19;3.40;;;2.60;;
7128;SDS011;3606;52.930;8.644;2022-10-16T01:54:47;4.67;;;2.60;;
7128;SDS011;3606;52.930;8.644;2022-10-16T01:57:15;7.73;;;2.67;;
7128;SDS011;3606;52.930;8.644;2022-10-16T01:59:44;6.20;;;2.93;;
7128;SDS011;3606;52.930;8.644;2022-10-16T02:02:13;4.50;;;3.20;;
7128;SDS011;3606;52.930;8.644;2022-10-16T02:07:29;3.00;;;2.40;;
7128;SDS011;3606;52.930;8.644;2022-10-16T02:09:55;3.40;;;2.53;;
7128;SDS011;3606;52.930;8.644;2022-10-16T02:12:28;8.03;;;2.70;;
7128;SDS011;3606;52.930;8.644;2022-10-16T02:14:56;4.07;;;2.97;;
7128;SDS011;3606;52.930;8.644;2022-10-16T02:17:22;7.10;;;2.83;;
7128;SDS011;3606;52.930;8.644;2022-10-16T02:19:49;7.43;;;2.93;;
7128;SDS011;3606;52.930;8.644;2022-10-16T02:22:31;4.50;;;2.50;;
7128;SDS011;3606;52.930;8.644;2022-10-16T02:25:20;6.97;;;2.80;;
7128;SDS011;3606;52.930;8.644;2022-10-16T02:30:28;5.13;;;2.60;;
7128;SDS011;3606;52.930;8.644;2022-10-16T02:32:58;9.60;;;2.83;;
7128;SDS011;3606;52.930;8.644;2022-10-16T02:35:27;7.40;;;3.10;;
7128;SDS011;3606;52.930;8.644;2022-10-16T02:37:54;6.20;;;3.10;;
7128;SDS011;3606;52.930;8.644;2022-10-16T02:40:21;5.80;;;2.87;;
7128;SDS011;3606;52.930;8.644;2022-10-16T02:42:50;5.20;;;3.10;;
7128;SDS011;3606;52.930;8.644;2022-10-16T02:45:17;5.87;;;3.10;;
7128;SDS011;3606;52.930;8.644;2022-10-16T02:47:43;5.93;;;3.07;;
7128;SDS011;3606;52.930;8.644;2022-10-16T02:50:09;6.13;;;2.70;;
7128;SDS011;3606;52.930;8.644;2022-10-16T02:52:34;5.40;;;3.30;;
7128;SDS011;3606;52.930;8.644;2022-10-16T02:55:00;3.53;;;2.87;;
7128;SDS011;3606;52.930;8.644;2022-10-16T02:57:26;10.73;;;3.27;;
7128;SDS011;3606;52.930;8.644;2022-10-16T02:59:52;6.40;;;3.00;;
7128;SDS011;3606;52.930;8.644;2022-10-16T03:02:17;4.33;;;3.20;;
7128;SDS011;3606;52.930;8.644;2022-10-16T03:04:43;5.77;;;3.53;;
7128;SDS011;3606;52.930;8.644;2022-10-16T03:07:09;5.73;;;3.53;;
7128;SDS011;3606;52.930;8.644;2022-10-16T03:09:34;4.53;;;3.33;;
7128;SDS011;3606;52.930;8.644;2022-10-16T03:12:00;4.93;;;3.80;;
7128;SDS011;3606;52.930;8.644;2022-10-16T03:14:26;6.47;;;3.80;;
7128;SDS011;3606;52.930;8.644;2022-10-16T03:16:51;6.33;;;4.43;;
7128;SDS011;3606;52.930;8.644;2022-10-16T03:19:17;6.07;;;3.90;;
7128;SDS011;3606;52.930;8.644;2022-10-16T03:21:43;6.43;;;4.03;;
7128;SDS011;3606;52.930;8.644;2022-10-16T03:24:09;9.70;;;4.83;;
7128;SDS011;3606;52.930;8.644;2022-10-16T03:26:34;7.30;;;3.97;;
7128;SDS011;3606;52.930;8.644;2022-10-16T03:29:00;9.57;;;4.70;;
7128;SDS011;3606;52.930;8.644;2022-10-16T03:31:28;8.73;;;4.87;;
7128;SDS011;3606;52.930;8.644;2022-10-16T03:33:54;5.87;;;5.20;;
7128;SDS011;3606;52.930;8.644;2022-10-16T03:36:20;9.97;;;5.50;;
7128;SDS011;3606;52.930;8.644;2022-10-16T03:38:45;9.87;;;5.87;;
7128;SDS011;3606;52.930;8.644;2022-10-16T03:41:11;11.77;;;6.07;;
7128;SDS011;3606;52.930;8.644;2022-10-16T03:43:36;13.07;;;6.50;;
7128;SDS011;3606;52.930;8.644;2022-10-16T03:46:02;13.57;;;6.37;;
7128;SDS011;3606;52.930;8.644;2022-10-16T03:48:28;12.00;;;6.60;;
7128;SDS011;3606;52.930;8.644;2022-10-16T03:50:54;14.57;;;7.03;;
7128;SDS011;3606;52.930;8.644;2022-10-16T03:53:19;16.27;;;7.63;;
7128;SDS011;3606;52.930;8.644;2022-10-16T03:55:45;10.07;;;7.20;;
7128;SDS011;3606;52.930;8.644;2022-10-16T03:58:11;11.90;;;8.30;;
7128;SDS011;3606;52.930;8.644;2022-10-16T04:00:40;12.47;;;8.10;;
7128;SDS011;3606;52.930;8.644;2022-10-16T04:03:06;11.97;;;7.60;;
7128;SDS011;3606;52.930;8.644;2022-10-16T04:05:32;14.20;;;8.30;;
7128;SDS011;3606;52.930;8.644;2022-10-16T04:07:58;15.80;;;9.17;;
7128;SDS011;3606;52.930;8.644;2022-10-16T04:10:24;16.53;;;9.00;;
7128;SDS011;3606;52.930;8.644;2022-10-16T04:12:49;14.77;;;8.63;;
7128;SDS011;3606;52.930;8.644;2022-10-16T04:15:15;10.63;;;8.07;;
7128;SDS011;3606;52.930;8.644;2022-10-16T04:17:41;12.83;;;8.43;;
7128;SDS011;3606;52.930;8.644;2022-10-16T04:20:06;14.13;;;8.57;;
7128;SDS011;3606;52.930;8.644;2022-10-16T04:22:32;16.13;;;8.83;;
7128;SDS011;3606;52.930;8.644;2022-10-16T04:24:58;14.60;;;8.83;;
7128;SDS011;3606;52.930;8.644;2022-10-16T04:27:23;17.97;;;10.30;;
7128;SDS011;3606;52.930;8.644;2022-10-16T04:29:49;13.80;;;8.90;;
7128;SDS011;3606;52.930;8.644;2022-10-16T04:32:15;13.10;;;9.33;;
7128;SDS011;3606;52.930;8.644;2022-10-16T04:34:40;16.47;;;9.03;;
7128;SDS011;3606;52.930;8.644;2022-10-16T04:37:06;17.53;;;9.20;;
7128;SDS011;3606;52.930;8.644;2022-10-16T04:39:32;14.10;;;9.23;;
7128;SDS011;3606;52.930;8.644;2022-10-16T04:41:57;16.70;;;9.80;;
7128;SDS011;3606;52.930;8.644;2022-10-16T04:44:23;12.53;;;9.53;;
7128;SDS011;3606;52.930;8.644;2022-10-16T04:46:51;16.97;;;10.30;;
7128;SDS011;3606;52.930;8.644;2022-10-16T04:49:17;18.10;;;10.90;;
7128;SDS011;3606;52.930;8.644;2022-10-16T04:51:43;16.23;;;9.30;;
7128;SDS011;3606;52.930;8.644;2022-10-16T04:54:09;15.67;;;10.50;;
7128;SDS011;3606;52.930;8.644;2022-10-16T04:56:35;18.70;;;10.53;;
7128;SDS011;3606;52.930;8.644;2022-10-16T04:59:07;17.07;;;10.93;;
7128;SDS011;3606;52.930;8.644;2022-10-16T05:01:33;17.93;;;10.30;;
7128;SDS011;3606;52.930;8.644;2022-10-16T05:03:59;16.83;;;10.07;;
7128;SDS011;3606;52.930;8.644;2022-10-16T05:06:25;18.90;;;10.63;;
7128;SDS011;3606;52.930;8.644;2022-10-16T05:08:50;17.53;;;10.37;;
7128;SDS011;3606;52.930;8.644;2022-10-16T05:11:16;19.83;;;11.70;;
7128;SDS011;3606;52.930;8.644;2022-10-16T05:13:42;16.57;;;10.40;;
7128;SDS011;3606;52.930;8.644;2022-10-16T05:16:07;14.03;;;10.97;;
7128;SDS011;3606;52.930;8.644;2022-10-16T05:18:33;18.00;;;11.03;;
7128;SDS011;3606;52.930;8.644;2022-10-16T05:20:58;17.47;;;10.97;;
7128;SDS011;3606;52.930;8.644;2022-10-16T05:23:24;16.87;;;11.23;;
7128;SDS011;3606;52.930;8.644;2022-10-16T05:25:53;23.63;;;11.00;;
7128;SDS011;3606;52.930;8.644;2022-10-16T05:28:23;18.00;;;11.43;;
7128;SDS011;3606;52.930;8.644;2022-10-16T05:30:50;14.03;;;10.80;;
7128;SDS011;3606;52.930;8.644;2022-10-16T05:33:16;19.03;;;10.40;;
7128;SDS011;3606;52.930;8.644;2022-10-16T05:35:41;15.53;;;11.23;;
7128;SDS011;3606;52.930;8.644;2022-10-16T05:38:07;17.80;;;10.50;;
7128;SDS011;3606;52.930;8.644;2022-10-16T05:40:33;16.23;;;10.77;;
7128;SDS011;3606;52.930;8.644;2022-10-16T05:42:58;15.37;;;10.27;;
7128;SDS011;3606;52.930;8.644;2022-10-16T05:45:24;17.37;;;10.73;;
7128;SDS011;3606;52.930;8.644;2022-10-16T05:47:50;15.77;;;9.83;;
7128;SDS011;3606;52.930;8.644;2022-10-16T05:50:16;14.80;;;10.53;;
7128;SDS011;3606;52.930;8.644;2022-10-16T05:52:41;12.67;;;9.70;;
7128;SDS011;3606;52.930;8.644;2022-10-16T05:55:07;17.37;;;10.60;;
7128;SDS011;3606;52.930;8.644;2022-10-16T05:57:33;15.63;;;10.30;;
7128;SDS011;3606;52.930;8.644;2022-10-16T05:59:58;13.17;;;9.77;;
7128;SDS011;3606;52.930;8.644;2022-10-16T06:02:24;12.90;;;9.43;;
7128;SDS011;3606;52.930;8.644;2022-10-16T06:04:51;13.83;;;9.50;;
7128;SDS011;3606;52.930;8.644;2022-10-16T06:07:18;17.00;;;9.90;;
7128;SDS011;3606;52.930;8.644;2022-10-16T06:09:47;14.57;;;9.33;;
7128;SDS011;3606;52.930;8.644;2022-10-16T06:12:14;15.20;;;9.33;;
7128;SDS011;3606;52.930;8.644;2022-10-16T06:14:40;14.63;;;9.80;;
7128;SDS011;3606;52.930;8.644;2022-10-16T06:17:05;18.03;;;9.73;;
7128;SDS011;3606;52.930;8.644;2022-10-16T06:19:31;15.10;;;9.17;;
7128;SDS011;3606;52.930;8.644;2022-10-16T06:21:57;13.53;;;9.23;;
7128;SDS011;3606;52.930;8.644;2022-10-16T06:24:23;15.63;;;9.53;;
7128;SDS011;3606;52.930;8.644;2022-10-16T06:26:49;14.47;;;9.40;;
7128;SDS011;3606;52.930;8.644;2022-10-16T06:29:15;16.33;;;9.40;;
7128;SDS011;3606;52.930;8.644;2022-10-16T06:31:41;18.63;;;9.07;;
7128;SDS011;3606;52.930;8.644;2022-10-16T06:34:08;14.87;;;8.87;;
7128;SDS011;3606;52.930;8.644;2022-10-16T06:36:35;12.50;;;9.10;;
7128;SDS011;3606;52.930;8.644;2022-10-16T06:39:02;15.13;;;9.40;;
7128;SDS011;3606;52.930;8.644;2022-10-16T06:41:28;17.90;;;9.83;;
7128;SDS011;3606;52.930;8.644;2022-10-16T06:43:54;13.17;;;8.67;;
7128;SDS011;3606;52.930;8.644;2022-10-16T06:46:20;13.30;;;8.73;;
7128;SDS011;3606;52.930;8.644;2022-10-16T06:48:47;14.27;;;8.97;;
7128;SDS011;3606;52.930;8.644;2022-10-16T06:51:14;15.80;;;9.90;;
7128;SDS011;3606;52.930;8.644;2022-10-16T06:53:48;11.57;;;8.33;;
7128;SDS011;3606;52.930;8.644;2022-10-16T06:56:23;14.30;;;8.17;;
7128;SDS011;3606;52.930;8.644;2022-10-16T06:58:50;11.30;;;7.67;;
7128;SDS011;3606;52.930;8.644;2022-10-16T07:01:16;11.67;;;7.90;;
7128;SDS011;3606;52.930;8.644;2022-10-16T07:03:43;13.77;;;7.70;;
7128;SDS011;3606;52.930;8.644;2022-10-16T07:06:11;11.03;;;7.53;;
7128;SDS011;3606;52.930;8.644;2022-10-16T07:08:38;13.20;;;7.27;;
7128;SDS011;3606;52.930;8.644;2022-10-16T07:11:06;8.20;;;6.37;;
7128;SDS011;3606;52.930;8.644;2022-10-16T07:13:34;8.47;;;6.27;;
7128;SDS011;3606;52.930;8.644;2022-10-16T07:16:04;15.37;;;6.17;;
7128;SDS011;3606;52.930;8.644;2022-10-16T07:18:41;7.67;;;5.70;;
7128;SDS011;3606;52.930;8.644;2022-10-16T07:21:17;6.63;;;4.80;;
7128;SDS011;3606;52.930;8.644;2022-10-16T07:23:45;5.40;;;4.53;;
7128;SDS011;3606;52.930;8.644;2022-10-16T07:26:15;7.17;;;4.37;;
7128;SDS011;3606;52.930;8.644;2022-10-16T07:28:40;5.80;;;4.20;;
7128;SDS011;3606;52.930;8.644;2022-10-16T07:31:09;4.30;;;3.90;;
7128;SDS011;3606;52.930;8.644;2022-10-16T07:33:38;5.50;;;3.70;;
7128;SDS011;3606;52.930;8.644;2022-10-16T07:36:05;3.73;;;3.33;;
7128;SDS011;3606;52.930;8.644;2022-10-16T07:38:31;5.93;;;3.70;;
7128;SDS011;3606;52.930;8.644;2022-10-16T07:40:57;5.97;;;3.43;;
7128;SDS011;3606;52.930;8.644;2022-10-16T07:43:25;4.03;;;3.30;;
7128;SDS011;3606;52.930;8.644;2022-10-16T07:45:51;5.97;;;3.67;;
7128;SDS011;3606;52.930;8.644;2022-10-16T07:48:17;5.93;;;3.40;;
7128;SDS011;3606;52.930;8.644;2022-10-16T07:50:43;4.03;;;3.63;;
7128;SDS011;3606;52.930;8.644;2022-10-16T07:53:10;6.77;;;3.30;;
7128;SDS011;3606;52.930;8.644;2022-10-16T07:55:36;3.97;;;3.30;;
7128;SDS011;3606;52.930;8.644;2022-10-16T07:58:01;3.93;;;2.90;;
7128;SDS011;3606;52.930;8.644;2022-10-16T08:00:27;5.67;;;3.33;;
7128;SDS011;3606;52.930;8.644;2022-10-16T08:02:53;4.90;;;3.20;;
7128;SDS011;3606;52.930;8.644;2022-10-16T08:05:18;4.10;;;3.20;;
7128;SDS011;3606;52.930;8.644;2022-10-16T08:07:50;5.10;;;3.30;;
7128;SDS011;3606;52.930;8.644;2022-10-16T08:10:16;4.70;;;3.33;;
7128;SDS011;3606;52.930;8.644;2022-10-16T08:12:43;4.77;;;3.37;;
7128;SDS011;3606;52.930;8.644;2022-10-16T08:15:09;4.43;;;3.03;;
7128;SDS011;3606;52.930;8.644;2022-10-16T08:17:35;5.60;;;2.93;;
7128;SDS011;3606;52.930;8.644;2022-10-16T08:20:01;5.83;;;3.17;;
7128;SDS011;3606;52.930;8.644;2022-10-16T08:22:26;6.83;;;3.70;;
7128;SDS011;3606;52.930;8.644;2022-10-16T08:24:52;3.80;;;2.90;;
7128;SDS011;3606;52.930;8.644;2022-10-16T08:27:18;4.20;;;3.47;;
7128;SDS011;3606;52.930;8.644;2022-10-16T08:29:43;5.63;;;3.37;;
7128;SDS011;3606;52.930;8.644;2022-10-16T08:32:09;4.00;;;2.80;;
7128;SDS011;3606;52.930;8.644;2022-10-16T08:34:35;3.80;;;2.93;;
7128;SDS011;3606;52.930;8.644;2022-10-16T08:37:00;4.53;;;2.87;;
7128;SDS011;3606;52.930;8.644;2022-10-16T08:39:27;3.23;;;2.57;;
7128;SDS011;3606;52.930;8.644;2022-10-16T08:47:45;2.70;;;2.50;;
7128;SDS011;3606;52.930;8.644;2022-10-16T08:50:25;5.70;;;2.50;;
7128;SDS011;3606;52.930;8.644;2022-10-16T08:52:53;5.00;;;2.63;;
7128;SDS011;3606;52.930;8.644;2022-10-16T08:57:51;4.37;;;2.37;;
7128;SDS011;3606;52.930;8.644;2022-10-16T09:00:16;2.20;;;2.00;;
7128;SDS011;3606;52.930;8.644;2022-10-16T09:08:31;4.63;;;2.30;;
7128;SDS011;3606;52.930;8.644;2022-10-16T09:11:00;5.67;;;2.17;;
7128;SDS011;3606;52.930;8.644;2022-10-16T09:16:39;3.63;;;1.77;;
7128;SDS011;3606;52.930;8.644;2022-10-16T09:19:34;2.67;;;1.70;;
7128;SDS011;3606;52.930;8.644;2022-10-16T09:22:10;4.07;;;1.90;;
7128;SDS011;3606;52.930;8.644;2022-10-16T09:24:39;1.97;;;1.77;;
7128;SDS011;3606;52.930;8.644;2022-10-16T09:27:08;3.23;;;1.90;;
7128;SDS011;3606;52.930;8.644;2022-10-16T09:29:36;4.80;;;2.00;;
7128;SDS011;3606;52.930;8.644;2022-10-16T09:32:15;2.13;;;1.40;;
7128;SDS011;3606;52.930;8.644;2022-10-16T09:34:46;4.10;;;2.00;;
7128;SDS011;3606;52.930;8.644;2022-10-16T09:37:18;1.97;;;1.30;;
7128;SDS011;3606;52.930;8.644;2022-10-16T09:39:49;2.57;;;1.30;;
7128;SDS011;3606;52.930;8.644;2022-10-16T09:42:31;5.23;;;1.60;;
7128;SDS011;3606;52.930;8.644;2022-10-16T09:45:00;2.73;;;1.80;;
7128;SDS011;3606;52.930;8.644;2022-10-16T09:47:27;3.07;;;2.10;;
7128;SDS011;3606;52.930;8.644;2022-10-16T09:52:22;11.43;;;7.50;;
7128;SDS011;3606;52.930;8.644;2022-10-16T09:54:52;7.07;;;3.97;;
7128;SDS011;3606;52.930;8.644;2022-10-16T09:57:18;48.83;;;30.23;;
7128;SDS011;3606;52.930;8.644;2022-10-16T09:59:51;4.40;;;2.10;;
7128;SDS011;3606;52.930;8.644;2022-10-16T10:02:17;4.90;;;1.77;;
7128;SDS011;3606;52.930;8.644;2022-10-16T10:04:52;34.33;;;22.73;;
7128;SDS011;3606;52.930;8.644;2022-10-16T10:07:32;9.60;;;5.80;;
7128;SDS011;3606;52.930;8.644;2022-10-16T10:10:03;25.77;;;19.37;;
7128;SDS011;3606;52.930;8.644;2022-10-16T10:12:30;2.63;;;1.83;;
7128;SDS011;3606;52.930;8.644;2022-10-16T10:14:58;3.77;;;3.17;;
7128;SDS011;3606;52.930;8.644;2022-10-16T10:17:31;4.30;;;2.10;;
7128;SDS011;3606;52.930;8.644;2022-10-16T10:19:57;3.13;;;2.00;;
7128;SDS011;3606;52.930;8.644;2022-10-16T10:36:13;6.80;;;1.70;;
7128;SDS011;3606;52.930;8.644;2022-10-16T10:39:03;4.07;;;1.60;;
7128;SDS011;3606;52.930;8.644;2022-10-16T10:44:55;2.57;;;1.50;;
7128;SDS011;3606;52.930;8.644;2022-10-16T10:55:48;1.43;;;1.23;;
7128;SDS011;3606;52.930;8.644;2022-10-16T11:06:48;2.37;;;1.17;;
7128;SDS011;3606;52.930;8.644;2022-10-16T11:12:38;3.90;;;1.43;;
7128;SDS011;3606;52.930;8.644;2022-10-16T11:15:12;1.97;;;1.40;;
7128;SDS011;3606;52.930;8.644;2022-10-16T11:23:05;3.03;;;1.40;;
7128;SDS011;3606;52.930;8.644;2022-10-16T11:25:35;4.40;;;1.60;;
7128;SDS011;3606;52.930;8.644;2022-10-16T11:28:07;2.10;;;1.50;;
7128;SDS011;3606;52.930;8.644;2022-10-16T11:33:32;2.23;;;1.57;;
7128;SDS011;3606;52.930;8.644;2022-10-16T11:36:14;1.65;;;1.38;;
7128;SDS011;3606;52.930;8.644;2022-10-16T11:39:11;2.15;;;1.27;;
7128;SDS011;3606;52.930;8.644;2022-10-16T11:41:53;3.87;;;1.40;;
7128;SDS011;3606;52.930;8.644;2022-10-16T11:47:54;3.30;;;1.47;;
7128;SDS011;3606;52.930;8.644;2022-10-16T11:50:31;5.73;;;1.90;;
7128;SDS011;3606;52.930;8.644;2022-10-16T11:55:39;8.27;;;1.77;;
7128;SDS011;3606;52.930;8.644;2022-10-16T11:58:07;1.77;;;1.30;;
7128;SDS011;3606;52.930;8.644;2022-10-16T12:00:40;1.97;;;1.07;;
7128;SDS011;3606;52.930;8.644;2022-10-16T12:03:12;3.45;;;1.40;;
7128;SDS011;3606;52.930;8.644;2022-10-16T12:08:33;3.78;;;1.33;;
7128;SDS011;3606;52.930;8.644;2022-10-16T12:11:20;4.57;;;1.50;;
7128;SDS011;3606;52.930;8.644;2022-10-16T12:16:37;5.78;;;3.17;;
7128;SDS011;3606;52.930;8.644;2022-10-16T12:19:24;2.90;;;1.10;;
7128;SDS011;3606;52.930;8.644;2022-10-16T12:21:52;2.55;;;1.20;;
7128;SDS011;3606;52.930;8.644;2022-10-16T12:24:31;1.67;;;1.40;;
7128;SDS011;3606;52.930;8.644;2022-10-16T12:26:57;4.97;;;1.60;;
7128;SDS011;3606;52.930;8.644;2022-10-16T12:31:59;5.17;;;1.30;;
7128;SDS011;3606;52.930;8.644;2022-10-16T12:34:28;2.00;;;1.50;;
7128;SDS011;3606;52.930;8.644;2022-10-16T12:37:18;3.93;;;1.43;;
7128;SDS011;3606;52.930;8.644;2022-10-16T12:39:48;3.43;;;1.80;;
7128;SDS011;3606;52.930;8.644;2022-10-16T12:42:22;4.40;;;1.83;;
7128;SDS011;3606;52.930;8.644;2022-10-16T12:44:51;3.67;;;1.42;;
7128;SDS011;3606;52.930;8.644;2022-10-16T12:47:48;2.58;;;1.50;;
7128;SDS011;3606;52.930;8.644;2022-10-16T12:50:32;3.85;;;1.23;;
7128;SDS011;3606;52.930;8.644;2022-10-16T12:53:00;5.20;;;1.80;;
7128;SDS011;3606;52.930;8.644;2022-10-16T12:55:30;4.87;;;1.97;;
7128;SDS011;3606;52.930;8.644;2022-10-16T12:58:20;2.47;;;1.37;;
7128;SDS011;3606;52.930;8.644;2022-10-16T13:03:35;2.77;;;1.23;;
7128;SDS011;3606;52.930;8.644;2022-10-16T13:06:23;5.83;;;1.80;;
7128;SDS011;3606;52.930;8.644;2022-10-16T13:09:02;3.50;;;1.50;;
7128;SDS011;3606;52.930;8.644;2022-10-16T13:22:58;2.87;;;1.80;;
7128;SDS011;3606;52.930;8.644;2022-10-16T13:28:29;4.40;;;2.00;;
7128;SDS011;3606;52.930;8.644;2022-10-16T13:30:57;5.83;;;2.00;;
7128;SDS011;3606;52.930;8.644;2022-10-16T13:36:03;4.47;;;2.20;;
7128;SDS011;3606;52.930;8.644;2022-10-16T13:38:30;2.90;;;1.87;;
7128;SDS011;3606;52.930;8.644;2022-10-16T13:40:58;2.87;;;1.57;;
7128;SDS011;3606;52.930;8.644;2022-10-16T13:46:05;5.28;;;1.85;;
7128;SDS011;3606;52.930;8.644;2022-10-16T13:48:36;7.70;;;1.95;;
7128;SDS011;3606;52.930;8.644;2022-10-16T13:53:32;3.33;;;1.90;;
7128;SDS011;3606;52.930;8.644;2022-10-16T13:55:59;5.30;;;2.00;;
7128;SDS011;3606;52.930;8.644;2022-10-16T13:58:27;3.27;;;1.80;;
7128;SDS011;3606;52.930;8.644;2022-10-16T14:00:53;5.10;;;1.70;;
7128;SDS011;3606;52.930;8.644;2022-10-16T14:03:20;5.23;;;1.73;;
7128;SDS011;3606;52.930;8.644;2022-10-16T14:05:46;7.13;;;1.93;;
7128;SDS011;3606;52.930;8.644;2022-10-16T14:08:14;5.90;;;2.00;;
7128;SDS011;3606;52.930;8.644;2022-10-16T14:10:41;4.97;;;1.97;;
7128;SDS011;3606;52.930;8.644;2022-10-16T14:13:07;5.97;;;1.70;;
7128;SDS011;3606;52.930;8.644;2022-10-16T14:15:39;2.97;;;1.60;;
7128;SDS011;3606;52.930;8.644;2022-10-16T14:18:05;4.63;;;1.60;;
7128;SDS011;3606;52.930;8.644;2022-10-16T14:20:31;3.03;;;1.40;;
7128;SDS011;3606;52.930;8.644;2022-10-16T14:23:20;5.80;;;1.50;;
7128;SDS011;3606;52.930;8.644;2022-10-16T14:25:44;5.53;;;1.60;;
7128;SDS011;3606;52.930;8.644;2022-10-16T14:28:22;2.80;;;1.77;;
7128;SDS011;3606;52.930;8.644;2022-10-16T14:33:31;5.20;;;2.40;;
7128;SDS011;3606;52.930;8.644;2022-10-16T14:36:05;3.63;;;1.83;;
7128;SDS011;3606;52.930;8.644;2022-10-16T14:38:37;2.87;;;2.40;;
7128;SDS011;3606;52.930;8.644;2022-10-16T14:41:05;4.90;;;1.60;;
7128;SDS011;3606;52.930;8.644;2022-10-16T14:43:32;5.00;;;1.90;;
7128;SDS011;3606;52.930;8.644;2022-10-16T14:45:59;5.90;;;1.60;;
7128;SDS011;3606;52.930;8.644;2022-10-16T14:48:28;5.30;;;2.00;;
7128;SDS011;3606;52.930;8.644;2022-10-16T14:50:54;3.30;;;1.73;;
7128;SDS011;3606;52.930;8.644;2022-10-16T14:53:20;6.43;;;1.80;;
7128;SDS011;3606;52.930;8.644;2022-10-16T14:55:46;4.87;;;2.10;;
7128;SDS011;3606;52.930;8.644;2022-10-16T14:58:17;4.73;;;2.13;;
7128;SDS011;3606;52.930;8.644;2022-10-16T15:00:45;4.30;;;1.93;;
7128;SDS011;3606;52.930;8.644;2022-10-16T15:03:11;4.13;;;1.93;;
7128;SDS011;3606;52.930;8.644;2022-10-16T15:05:37;6.80;;;2.57;;
7128;SDS011;3606;52.930;8.644;2022-10-16T15:08:03;5.73;;;2.23;;
7128;SDS011;3606;52.930;8.644;2022-10-16T15:10:29;5.60;;;2.23;;
7128;SDS011;3606;52.930;8.644;2022-10-16T15:12:57;6.13;;;2.70;;
7128;SDS011;3606;52.930;8.644;2022-10-16T15:17:48;5.77;;;3.37;;
7128;SDS011;3606;52.930;8.644;2022-10-16T15:20:20;5.27;;;2.77;;
7128;SDS011;3606;52.930;8.644;2022-10-16T15:22:47;6.40;;;4.30;;
7128;SDS011;3606;52.930;8.644;2022-10-16T15:28:04;11.13;;;3.97;;
7128;SDS011;3606;52.930;8.644;2022-10-16T15:30:30;6.27;;;3.70;;
7128;SDS011;3606;52.930;8.644;2022-10-16T15:32:56;8.47;;;4.33;;
7128;SDS011;3606;52.930;8.644;2022-10-16T15:35:22;5.03;;;2.37;;
7128;SDS011;3606;52.930;8.644;2022-10-16T15:37:48;4.23;;;1.90;;
7128;SDS011;3606;52.930;8.644;2022-10-16T15:40:14;5.30;;;2.23;;
7128;SDS011;3606;52.930;8.644;2022-10-16T15:42:41;4.13;;;2.20;;
7128;SDS011;3606;52.930;8.644;2022-10-16T15:45:08;5.13;;;2.10;;
7128;SDS011;3606;52.930;8.644;2022-10-16T15:47:34;5.93;;;2.23;;
7128;SDS011;3606;52.930;8.644;2022-10-16T15:50:00;5.40;;;1.87;;
7128;SDS011;3606;52.930;8.644;2022-10-16T15:52:26;3.53;;;2.10;;
7128;SDS011;3606;52.930;8.644;2022-10-16T15:54:53;3.50;;;2.03;;
7128;SDS011;3606;52.930;8.644;2022-10-16T15:57:19;5.80;;;3.60;;
7128;SDS011;3606;52.930;8.644;2022-10-16T15:59:45;4.20;;;2.67;;
7128;SDS011;3606;52.930;8.644;2022-10-16T16:02:10;5.93;;;2.20;;
7128;SDS011;3606;52.930;8.644;2022-10-16T16:04:36;6.87;;;2.17;;
7128;SDS011;3606;52.930;8.644;2022-10-16T16:07:02;3.47;;;2.00;;
7128;SDS011;3606;52.930;8.644;2022-10-16T16:09:30;5.10;;;2.13;;
7128;SDS011;3606;52.930;8.644;2022-10-16T16:11:56;6.57;;;2.77;;
7128;SDS011;3606;52.930;8.644;2022-10-16T16:14:25;8.27;;;3.20;;
7128;SDS011;3606;52.930;8.644;2022-10-16T16:16:52;6.57;;;3.20;;
7128;SDS011;3606;52.930;8.644;2022-10-16T16:19:19;3.77;;;2.70;;
7128;SDS011;3606;52.930;8.644;2022-10-16T16:21:46;5.67;;;3.00;;
7128;SDS011;3606;52.930;8.644;2022-10-16T16:24:12;7.13;;;3.20;;
7128;SDS011;3606;52.930;8.644;2022-10-16T16:26:37;5.00;;;3.23;;
7128;SDS011;3606;52.930;8.644;2022-10-16T16:29:08;6.53;;;3.40;;
7128;SDS011;3606;52.930;8.644;2022-10-16T16:31:38;9.57;;;3.70;;
7128;SDS011;3606;52.930;8.644;2022-10-16T16:34:04;4.83;;;2.77;;
7128;SDS011;3606;52.930;8.644;2022-10-16T16:36:30;4.03;;;2.23;;
7128;SDS011;3606;52.930;8.644;2022-10-16T16:38:56;5.27;;;2.50;;
7128;SDS011;3606;52.930;8.644;2022-10-16T16:41:23;7.60;;;2.43;;
7128;SDS011;3606;52.930;8.644;2022-10-16T16:43:50;4.47;;;2.30;;
7128;SDS011;3606;52.930;8.644;2022-10-16T16:46:17;5.27;;;2.33;;
7128;SDS011;3606;52.930;8.644;2022-10-16T16:48:43;8.00;;;2.10;;
7128;SDS011;3606;52.930;8.644;2022-10-16T16:51:11;4.67;;;2.03;;
7128;SDS011;3606;52.930;8.644;2022-10-16T16:53:45;7.03;;;2.50;;
7128;SDS011;3606;52.930;8.644;2022-10-16T16:56:12;6.70;;;2.43;;
7128;SDS011;3606;52.930;8.644;2022-10-16T16:58:38;8.73;;;2.43;;
7128;SDS011;3606;52.930;8.644;2022-10-16T17:01:03;6.90;;;2.10;;
7128;SDS011;3606;52.930;8.644;2022-10-16T17:03:30;6.87;;;2.50;;
7128;SDS011;3606;52.930;8.644;2022-10-16T17:06:01;5.17;;;2.50;;
7128;SDS011;3606;52.930;8.644;2022-10-16T17:08:29;9.23;;;2.87;;
7128;SDS011;3606;52.930;8.644;2022-10-16T17:10:56;3.83;;;2.50;;
7128;SDS011;3606;52.930;8.644;2022-10-16T17:13:22;10.70;;;2.70;;
7128;SDS011;3606;52.930;8.644;2022-10-16T17:15:52;11.90;;;2.60;;
7128;SDS011;3606;52.930;8.644;2022-10-16T17:18:18;8.17;;;2.80;;
7128;SDS011;3606;52.930;8.644;2022-10-16T17:20:45;6.57;;;2.90;;
7128;SDS011;3606;52.930;8.644;2022-10-16T17:23:12;9.53;;;3.10;;
7128;SDS011;3606;52.930;8.644;2022-10-16T17:25:39;7.87;;;3.53;;